createdAt,value
2022-08-02T00:00:09.595Z,12.96
2022-08-02T00:02:36.421Z,13.00
2022-08-02T00:05:03.121Z,13.04
2022-08-02T00:07:29.654Z,12.98
2022-08-02T00:09:56.257Z,12.78
2022-08-02T00:12:22.980Z,12.69
2022-08-02T00:14:49.611Z,12.59
2022-08-02T00:17:16.142Z,12.65
2022-08-02T00:19:42.764Z,12.60
2022-08-02T00:22:09.516Z,12.51
2022-08-02T00:24:36.351Z,12.44
2022-08-02T00:27:09.588Z,12.40
2022-08-02T00:29:42.717Z,12.35
2022-08-02T00:32:19.875Z,12.33
2022-08-02T00:34:46.480Z,12.31
2022-08-02T00:37:12.991Z,12.37
2022-08-02T00:39:39.660Z,12.37
2022-08-02T00:42:06.384Z,12.32
2022-08-02T00:44:32.958Z,12.24
2022-08-02T00:46:59.679Z,12.17
2022-08-02T00:49:26.374Z,12.06
2022-08-02T00:51:53.073Z,12.08
2022-08-02T00:54:20.695Z,12.07
2022-08-02T00:56:49.654Z,12.07
2022-08-02T00:59:18.295Z,12.02
2022-08-02T01:01:56.160Z,12.08
2022-08-02T01:04:30.107Z,12.08
2022-08-02T01:06:58.609Z,12.04
2022-08-02T01:09:25.514Z,12.02
2022-08-02T01:11:52.041Z,12.08
2022-08-02T01:14:19.035Z,12.12
2022-08-02T01:16:52.840Z,12.19
2022-08-02T01:19:51.732Z,12.26
2022-08-02T01:23:01.468Z,12.27
2022-08-02T01:25:52.694Z,12.23
2022-08-02T01:28:30.294Z,12.29
2022-08-02T01:31:04.997Z,12.23
2022-08-02T01:33:36.910Z,12.21
2022-08-02T01:36:05.540Z,12.17
2022-08-02T01:38:41.093Z,12.06
2022-08-02T01:41:10.188Z,12.04
2022-08-02T01:43:38.459Z,11.97
2022-08-02T01:46:05.756Z,11.91
2022-08-02T01:48:34.637Z,11.85
2022-08-02T01:51:01.439Z,11.81
2022-08-02T01:53:29.444Z,11.83
2022-08-02T01:55:59.167Z,11.77
2022-08-02T01:58:28.355Z,11.82
2022-08-02T02:00:57.014Z,11.78
2022-08-02T02:03:24.974Z,11.80
2022-08-02T02:05:54.766Z,11.85
2022-08-02T02:08:38.263Z,11.88
2022-08-02T02:12:13.196Z,11.86
2022-08-02T02:13:53.153Z,11.70
2022-08-02T02:16:20.024Z,11.68
2022-08-02T02:18:47.197Z,11.61
2022-08-02T02:21:14.895Z,11.51
2022-08-02T02:23:43.535Z,11.46
2022-08-02T02:26:11.903Z,11.46
2022-08-02T02:28:40.135Z,11.44
2022-08-02T02:31:10.032Z,11.48
2022-08-02T02:33:40.880Z,11.51
2022-08-02T02:36:09.458Z,11.46
2022-08-02T02:38:36.452Z,11.52
2022-08-02T02:41:04.491Z,11.58
2022-08-02T02:43:32.870Z,11.55
2022-08-02T02:46:00.766Z,11.54
2022-08-02T02:48:27.921Z,11.49
2022-08-02T02:50:54.674Z,11.41
2022-08-02T02:53:22.568Z,11.30
2022-08-02T02:56:02.205Z,11.22
2022-08-02T02:58:30.302Z,11.19
2022-08-02T03:01:15.540Z,11.20
2022-08-02T03:03:44.133Z,11.23
2022-08-02T03:06:15.648Z,11.17
2022-08-02T03:08:42.809Z,11.17
2022-08-02T03:11:10.165Z,11.15
2022-08-02T03:13:37.770Z,11.10
2022-08-02T03:16:04.550Z,11.14
2022-08-02T03:18:36.522Z,11.25
2022-08-02T03:21:05.380Z,11.37
2022-08-02T03:23:32.801Z,11.39
2022-08-02T03:25:59.443Z,11.42
2022-08-02T03:28:26.069Z,11.46
2022-08-02T03:30:52.846Z,11.50
2022-08-02T03:33:20.595Z,11.56
2022-08-02T03:35:48.610Z,11.62
2022-08-02T03:38:16.555Z,11.59
2022-08-02T03:40:43.455Z,11.59
2022-08-02T03:43:10.440Z,11.63
2022-08-02T03:45:42.861Z,11.67
2022-08-02T03:48:34.896Z,11.68
2022-08-02T03:50:58.145Z,11.69
2022-08-02T03:53:25.056Z,11.70
2022-08-02T03:55:51.906Z,11.71
2022-08-02T03:58:23.142Z,11.76
2022-08-02T04:00:50.388Z,11.78
2022-08-02T04:03:19.941Z,11.81
2022-08-02T04:06:03.409Z,11.76
2022-08-02T04:08:36.891Z,11.78
2022-08-02T04:11:23.196Z,11.78
2022-08-02T04:13:49.944Z,11.75
2022-08-02T04:16:21.473Z,11.74
2022-08-02T04:18:54.670Z,11.74
2022-08-02T04:21:22.259Z,11.70
2022-08-02T04:23:50.502Z,11.68
2022-08-02T04:26:18.820Z,11.71
2022-08-02T04:28:54.489Z,11.75
2022-08-02T04:31:21.470Z,11.78
2022-08-02T04:33:48.371Z,11.76
2022-08-02T04:36:15.196Z,11.80
2022-08-02T04:38:57.719Z,11.69
2022-08-02T04:41:36.985Z,11.69
2022-08-02T04:44:07.984Z,11.76
2022-08-02T04:46:36.226Z,11.79
2022-08-02T04:49:03.139Z,11.91
2022-08-02T04:51:38.367Z,11.93
2022-08-02T04:54:09.280Z,11.92
2022-08-02T04:56:36.843Z,11.94
2022-08-02T04:59:03.412Z,11.91
2022-08-02T05:01:30.187Z,11.90
2022-08-02T05:03:56.751Z,11.94
2022-08-02T05:06:23.315Z,12.01
2022-08-02T05:08:52.778Z,12.09
2022-08-02T05:11:21.124Z,12.16
2022-08-02T05:13:58.557Z,12.22
2022-08-02T05:16:30.976Z,12.22
2022-08-02T05:18:59.668Z,12.26
2022-08-02T05:21:26.334Z,12.33
2022-08-02T05:23:52.937Z,12.38
2022-08-02T05:26:19.600Z,12.37
2022-08-02T05:28:46.147Z,12.35
2022-08-02T05:31:13.412Z,12.41
2022-08-02T05:33:40.633Z,12.42
2022-08-02T05:36:09.307Z,12.47
2022-08-02T05:38:36.946Z,12.49
2022-08-02T05:41:04.227Z,12.63
2022-08-02T05:43:31.112Z,12.74
2022-08-02T05:45:57.823Z,12.88
2022-08-02T05:48:30.893Z,13.04
2022-08-02T05:51:06.348Z,13.19
2022-08-02T05:53:59.237Z,13.24
2022-08-02T05:56:33.746Z,13.30
2022-08-02T05:59:05.001Z,13.29
2022-08-02T06:01:36.898Z,13.36
2022-08-02T06:04:07.172Z,13.33
2022-08-02T06:06:34.652Z,13.51
2022-08-02T06:09:07.533Z,13.61
2022-08-02T06:11:40.026Z,13.60
2022-08-02T06:14:07.840Z,13.50
2022-08-02T06:16:42.222Z,13.43
2022-08-02T06:19:09.836Z,13.56
2022-08-02T06:22:33.146Z,13.88
2022-08-02T06:24:24.023Z,14.25
2022-08-02T06:26:55.265Z,14.55
2022-08-02T06:29:23.183Z,14.89
2022-08-02T06:31:51.597Z,15.20
2022-08-02T06:34:18.137Z,15.44
2022-08-02T06:37:15.242Z,15.77
2022-08-02T06:39:48.122Z,16.01
2022-08-02T06:42:25.536Z,16.20
2022-08-02T06:44:57.402Z,16.35
2022-08-02T06:47:24.846Z,16.58
2022-08-02T06:49:54.139Z,16.74
2022-08-02T06:52:28.998Z,16.72
2022-08-02T06:55:00.009Z,16.80
2022-08-02T06:57:27.654Z,16.81
2022-08-02T06:59:54.251Z,16.83
2022-08-02T07:02:20.923Z,17.00
2022-08-02T07:04:47.499Z,17.04
2022-08-02T07:07:14.070Z,17.20
2022-08-02T07:09:56.733Z,17.30
2022-08-02T07:12:28.940Z,17.28
2022-08-02T07:14:55.505Z,17.23
2022-08-02T07:17:22.078Z,17.36
2022-08-02T07:19:48.636Z,17.64
2022-08-02T07:22:15.506Z,17.93
2022-08-02T07:24:42.405Z,18.21
2022-08-02T07:27:11.995Z,18.50
2022-08-02T07:29:46.415Z,18.76
2022-08-02T07:32:17.722Z,18.81
2022-08-02T07:34:52.577Z,19.05
2022-08-02T07:37:35.380Z,19.08
2022-08-02T07:40:15.299Z,19.10
2022-08-02T07:42:52.315Z,18.98
2022-08-02T07:45:20.287Z,19.01
2022-08-02T07:47:47.070Z,19.34
2022-08-02T07:50:15.125Z,19.48
2022-08-02T07:52:42.684Z,19.72
2022-08-02T07:55:10.292Z,19.85
2022-08-02T07:57:41.252Z,19.97
2022-08-02T08:00:11.076Z,20.24
2022-08-02T08:02:38.257Z,20.40
2022-08-02T08:05:05.146Z,20.58
2022-08-02T08:07:31.660Z,20.71
2022-08-02T08:09:59.795Z,20.92
2022-08-02T08:12:26.744Z,21.29
2022-08-02T08:14:53.867Z,21.29
2022-08-02T08:17:20.511Z,21.20
2022-08-02T08:19:51.731Z,21.50
2022-08-02T08:22:21.712Z,21.92
2022-08-02T08:24:48.928Z,21.96
2022-08-02T08:27:16.378Z,22.33
2022-08-02T08:29:43.679Z,22.53
2022-08-02T08:32:15.885Z,22.77
2022-08-02T08:34:44.085Z,22.99
2022-08-02T08:37:17.673Z,22.98
2022-08-02T08:39:56.275Z,23.19
2022-08-02T08:42:27.004Z,23.22
2022-08-02T08:44:56.428Z,23.45
2022-08-02T08:47:24.260Z,23.57
2022-08-02T08:49:53.359Z,23.92
2022-08-02T08:52:22.799Z,24.09
2022-08-02T08:54:50.054Z,23.93
2022-08-02T08:57:18.151Z,24.10
2022-08-02T08:59:45.993Z,24.17
2022-08-02T09:02:16.882Z,24.23
2022-08-02T09:04:54.798Z,24.44
2022-08-02T09:07:22.866Z,24.48
2022-08-02T09:09:49.396Z,24.40
2022-08-02T09:12:17.639Z,24.38
2022-08-02T09:14:46.476Z,24.44
2022-08-02T09:17:17.392Z,24.66
2022-08-02T09:19:45.660Z,24.71
2022-08-02T09:22:13.420Z,24.87
2022-08-02T09:24:48.927Z,25.08
2022-08-02T09:27:20.425Z,25.20
2022-08-02T09:30:12.345Z,25.25
2022-08-02T09:32:48.051Z,25.43
2022-08-02T09:36:05.865Z,25.61
2022-08-02T09:38:18.632Z,25.36
2022-08-02T09:40:45.339Z,25.37
2022-08-02T09:43:12.473Z,25.18
2022-08-02T09:45:39.141Z,25.36
2022-08-02T09:48:09.651Z,25.41
2022-08-02T09:50:40.018Z,25.23
2022-08-02T09:53:12.924Z,25.19
2022-08-02T09:55:40.503Z,25.15
2022-08-02T09:58:20.438Z,25.26
2022-08-02T10:00:59.073Z,25.44
2022-08-02T10:03:28.101Z,26.66
2022-08-02T10:06:03.319Z,27.82
2022-08-02T10:08:33.084Z,29.29
2022-08-02T10:11:00.746Z,30.32
2022-08-02T10:13:32.579Z,30.72
2022-08-02T10:15:59.617Z,30.49
2022-08-02T10:18:38.755Z,30.62
2022-08-02T10:21:11.003Z,30.26
2022-08-02T10:23:39.521Z,29.90
2022-08-02T10:26:06.940Z,30.70
2022-08-02T10:28:34.064Z,31.88
2022-08-02T10:31:04.737Z,32.28
2022-08-02T10:33:33.260Z,32.79
2022-08-02T10:36:04.681Z,33.91
2022-08-02T10:38:35.308Z,34.58
2022-08-02T10:41:01.927Z,32.64
2022-08-02T10:43:31.472Z,33.01
2022-08-02T10:46:38.236Z,31.54
2022-08-02T10:49:29.742Z,30.71
2022-08-02T10:52:00.394Z,29.64
2022-08-02T10:54:35.956Z,29.74
2022-08-02T10:57:03.301Z,31.44
2022-08-02T10:59:30.861Z,33.12
2022-08-02T11:02:03.962Z,34.15
2022-08-02T11:04:36.382Z,35.09
2022-08-02T11:07:19.133Z,34.69
2022-08-02T11:09:47.482Z,34.67
2022-08-02T11:12:17.022Z,34.93
2022-08-02T11:14:45.570Z,35.68
2022-08-02T11:17:18.999Z,36.38
2022-08-02T11:20:13.519Z,37.29
2022-08-02T11:22:41.012Z,38.04
2022-08-02T11:25:23.097Z,37.84
2022-08-02T11:27:57.697Z,39.25
2022-08-02T11:30:26.618Z,40.18
2022-08-02T11:32:58.227Z,40.37
2022-08-02T11:35:35.451Z,39.56
2022-08-02T11:38:20.919Z,39.58
2022-08-02T11:40:48.855Z,38.90
2022-08-02T11:43:23.724Z,38.71
2022-08-02T11:45:52.391Z,37.57
2022-08-02T11:48:36.162Z,36.86
2022-08-02T11:51:05.002Z,37.22
2022-08-02T11:53:35.079Z,36.39
2022-08-02T11:56:01.536Z,36.53
2022-08-02T11:58:28.084Z,37.79
2022-08-02T12:00:54.718Z,38.00
2022-08-02T12:03:21.306Z,37.91
2022-08-02T12:06:04.615Z,38.89
2022-08-02T12:08:33.936Z,39.59
2022-08-02T12:11:02.295Z,40.74
2022-08-02T12:13:29.268Z,41.58
2022-08-02T12:16:15.775Z,40.87
2022-08-02T12:19:07.389Z,40.64
2022-08-02T12:21:34.144Z,40.42
2022-08-02T12:24:01.361Z,39.80
2022-08-02T12:26:29.728Z,39.22
2022-08-02T12:28:58.620Z,39.72
2022-08-02T12:31:57.215Z,39.60
2022-08-02T12:34:32.060Z,37.36
2022-08-02T12:36:59.024Z,36.77
2022-08-02T12:39:36.521Z,35.24
2022-08-02T12:42:03.964Z,35.61
2022-08-02T12:44:30.521Z,36.36
2022-08-02T12:47:00.809Z,36.75
2022-08-02T12:49:30.989Z,37.08
2022-08-02T12:52:02.248Z,37.42
2022-08-02T12:54:40.431Z,36.82
2022-08-02T12:57:14.625Z,37.17
2022-08-02T12:59:42.549Z,37.56
2022-08-02T13:02:12.590Z,37.74
2022-08-02T13:04:39.750Z,37.95
2022-08-02T13:07:06.587Z,37.98
2022-08-02T13:09:41.538Z,37.66
2022-08-02T13:12:08.900Z,38.28
2022-08-02T13:14:39.924Z,38.30
2022-08-02T13:17:12.601Z,37.03
2022-08-02T13:19:39.124Z,36.09
2022-08-02T13:22:06.112Z,35.29
2022-08-02T13:24:39.874Z,33.97
2022-08-02T13:27:21.585Z,32.67
2022-08-02T13:29:49.509Z,32.40
2022-08-02T13:32:16.802Z,32.58
2022-08-02T13:34:43.669Z,33.37
2022-08-02T13:37:10.515Z,33.65
2022-08-02T13:39:37.103Z,33.64
2022-08-02T13:42:03.848Z,33.53
2022-08-02T13:44:32.790Z,33.03
2022-08-02T13:46:59.407Z,32.22
2022-08-02T13:49:49.793Z,31.79
2022-08-02T13:52:13.003Z,31.53
2022-08-02T13:54:39.716Z,31.41
2022-08-02T13:57:06.315Z,31.61
2022-08-02T13:59:58.515Z,31.94
2022-08-02T14:02:19.570Z,31.89
2022-08-02T14:04:46.191Z,31.37
2022-08-02T14:07:12.982Z,31.08
2022-08-02T14:09:40.449Z,31.58
2022-08-02T14:12:09.712Z,31.84
2022-08-02T14:14:36.809Z,31.39
2022-08-02T14:17:03.547Z,30.68
2022-08-02T14:19:30.256Z,30.39
2022-08-02T14:22:10.981Z,30.08
2022-08-02T14:24:39.394Z,29.41
2022-08-02T14:27:05.946Z,29.48
2022-08-02T14:29:32.470Z,29.37
2022-08-02T14:31:59.068Z,29.38
2022-08-02T14:34:25.627Z,29.27
2022-08-02T14:36:54.138Z,29.08
2022-08-02T14:39:21.211Z,29.19
2022-08-02T14:41:59.701Z,29.00
2022-08-02T14:44:27.787Z,28.90
2022-08-02T14:46:54.620Z,28.86
2022-08-02T14:49:25.665Z,28.70
2022-08-02T14:51:56.050Z,28.58
2022-08-02T14:54:28.245Z,28.54
2022-08-02T14:57:03.407Z,28.59
2022-08-02T14:59:30.456Z,28.81
2022-08-02T15:01:57.458Z,29.10
2022-08-02T15:04:24.245Z,29.03
2022-08-02T15:06:50.962Z,29.01
2022-08-02T15:09:17.536Z,29.00
2022-08-02T15:11:47.753Z,28.91
2022-08-02T15:14:22.063Z,29.01
2022-08-02T15:16:58.866Z,29.01
2022-08-02T15:19:52.979Z,29.10
2022-08-02T15:22:16.188Z,29.36
2022-08-02T15:24:45.314Z,28.93
2022-08-02T15:27:14.089Z,28.47
2022-08-02T15:29:41.320Z,28.13
2022-08-02T15:32:08.080Z,27.85
2022-08-02T15:34:34.779Z,27.66
2022-08-02T15:37:01.362Z,27.63
2022-08-02T15:39:27.895Z,27.35
2022-08-02T15:41:54.446Z,27.15
2022-08-02T15:44:21.007Z,26.92
2022-08-02T15:46:47.556Z,26.93
2022-08-02T15:49:14.194Z,27.03
2022-08-02T15:51:40.755Z,27.20
2022-08-02T15:54:07.491Z,27.64
2022-08-02T15:56:34.008Z,27.71
2022-08-02T15:59:00.575Z,27.61
2022-08-02T16:01:37.176Z,27.54
2022-08-02T16:04:06.380Z,27.32
2022-08-02T16:06:33.348Z,27.13
2022-08-02T16:09:00.115Z,26.89
2022-08-02T16:11:27.419Z,26.80
2022-08-02T16:13:54.675Z,26.66
2022-08-02T16:16:32.121Z,26.43
2022-08-02T16:18:59.181Z,26.32
2022-08-02T16:21:26.234Z,26.26
2022-08-02T16:23:58.996Z,26.30
2022-08-02T16:26:29.488Z,26.41
2022-08-02T16:28:56.677Z,26.44
2022-08-02T16:31:23.898Z,26.49
2022-08-02T16:33:50.543Z,26.42
2022-08-02T16:36:23.571Z,26.43
2022-08-02T16:38:50.224Z,26.41
2022-08-02T16:41:16.928Z,26.35
2022-08-02T16:43:43.476Z,26.36
2022-08-02T16:46:10.287Z,26.23
2022-08-02T16:48:37.029Z,26.17
2022-08-02T16:51:03.670Z,26.10
2022-08-02T16:53:36.998Z,26.04
2022-08-02T16:56:05.119Z,26.00
2022-08-02T16:58:31.678Z,25.95
2022-08-02T17:00:58.260Z,25.92
2022-08-02T17:03:24.852Z,25.88
2022-08-02T17:06:11.390Z,25.78
2022-08-02T17:08:54.108Z,25.77
2022-08-02T17:11:20.897Z,25.72
2022-08-02T17:13:50.255Z,25.69
2022-08-02T17:16:20.446Z,25.64
2022-08-02T17:18:54.105Z,25.56
2022-08-02T17:21:21.131Z,25.54
2022-08-02T17:24:08.102Z,25.47
2022-08-02T17:26:35.651Z,25.45
2022-08-02T17:29:15.386Z,25.43
2022-08-02T17:32:04.742Z,25.42
2022-08-02T17:34:34.399Z,25.41
2022-08-02T17:37:00.931Z,25.37
2022-08-02T17:39:33.715Z,25.29
2022-08-02T17:42:01.248Z,25.28
2022-08-02T17:44:37.821Z,25.16
2022-08-02T17:47:11.895Z,25.05
2022-08-02T17:49:44.053Z,24.97
2022-08-02T17:52:50.139Z,24.84
2022-08-02T17:55:03.494Z,24.80
2022-08-02T17:57:55.224Z,24.69
2022-08-02T18:00:17.538Z,24.68
2022-08-02T18:02:44.070Z,24.59
2022-08-02T18:05:19.616Z,24.50
2022-08-02T18:07:52.027Z,24.40
2022-08-02T18:10:22.099Z,24.28
2022-08-02T18:12:49.765Z,24.20
2022-08-02T18:15:16.322Z,24.12
2022-08-02T18:17:46.667Z,24.00
2022-08-02T18:20:13.239Z,24.01
2022-08-02T18:22:43.082Z,23.94
2022-08-02T18:25:11.456Z,23.85
2022-08-02T18:27:57.952Z,23.71
2022-08-02T18:30:28.058Z,23.59
2022-08-02T18:33:56.985Z,23.48
2022-08-02T18:35:42.648Z,23.39
2022-08-02T18:38:10.983Z,23.35
2022-08-02T18:40:38.627Z,23.24
2022-08-02T18:43:07.234Z,23.12
2022-08-02T18:45:42.041Z,23.07
2022-08-02T18:48:22.065Z,23.01
2022-08-02T18:50:48.762Z,22.96
2022-08-02T18:53:28.264Z,22.85
2022-08-02T18:56:04.683Z,22.78
2022-08-02T18:58:31.615Z,22.63
2022-08-02T19:00:59.746Z,22.41
2022-08-02T19:03:31.834Z,22.21
2022-08-02T19:06:04.087Z,21.98
2022-08-02T19:08:34.838Z,21.85
2022-08-02T19:11:02.814Z,21.74
2022-08-02T19:13:29.520Z,21.65
2022-08-02T19:15:56.205Z,21.50
2022-08-02T19:18:26.763Z,21.37
2022-08-02T19:20:56.171Z,21.25
2022-08-02T19:23:24.681Z,21.15
2022-08-02T19:25:54.786Z,21.05
2022-08-02T19:28:25.775Z,20.99
2022-08-02T19:30:53.800Z,20.97
2022-08-02T19:33:54.544Z,20.89
2022-08-02T19:36:07.201Z,20.80
2022-08-02T19:38:33.745Z,20.67
2022-08-02T19:41:01.774Z,20.60
2022-08-02T19:44:24.048Z,20.54
2022-08-02T19:46:15.920Z,20.45
2022-08-02T19:48:42.847Z,20.35
2022-08-02T19:51:12.992Z,20.22
2022-08-02T19:53:48.004Z,20.15
2022-08-02T19:56:20.615Z,20.02
2022-08-02T19:58:51.182Z,19.96
2022-08-02T20:01:21.898Z,19.90
2022-08-02T20:03:53.064Z,19.83
2022-08-02T20:06:20.297Z,19.76
2022-08-02T20:08:57.106Z,19.62
2022-08-02T20:11:25.669Z,19.57
2022-08-02T20:13:53.445Z,19.48
2022-08-02T20:16:21.091Z,19.40
2022-08-02T20:18:55.147Z,19.28
2022-08-02T20:21:36.577Z,19.20
2022-08-02T20:24:07.676Z,19.17
2022-08-02T20:26:35.335Z,19.10
2022-08-02T20:29:03.774Z,19.10
2022-08-02T20:31:30.626Z,19.03
2022-08-02T20:33:57.523Z,18.97
2022-08-02T20:36:25.561Z,18.96
2022-08-02T20:38:52.258Z,18.88
2022-08-02T20:41:21.591Z,18.87
2022-08-02T20:43:48.896Z,18.82
2022-08-02T20:46:15.702Z,18.77
2022-08-02T20:48:42.350Z,18.66
2022-08-02T20:51:12.136Z,18.55
2022-08-02T20:53:56.369Z,18.48
2022-08-02T20:56:23.358Z,18.47
2022-08-02T20:58:52.123Z,18.40
2022-08-02T21:01:21.338Z,18.45
2022-08-02T21:03:58.366Z,18.43
2022-08-02T21:06:28.035Z,18.36
2022-08-02T21:08:55.420Z,18.36
2022-08-02T21:11:25.632Z,18.28
2022-08-02T21:14:06.538Z,18.24
2022-08-02T21:16:36.096Z,18.22
2022-08-02T21:19:03.001Z,18.17
2022-08-02T21:21:34.744Z,18.13
2022-08-02T21:24:01.701Z,18.09
2022-08-02T21:26:30.988Z,18.07
2022-08-02T21:29:01.018Z,18.07
2022-08-02T21:31:31.885Z,18.09
2022-08-02T21:34:00.466Z,18.06
2022-08-02T21:36:30.975Z,18.04
2022-08-02T21:38:58.221Z,17.99
2022-08-02T21:41:24.854Z,17.96
2022-08-02T21:44:07.230Z,17.89
2022-08-02T21:46:33.755Z,17.83
2022-08-02T21:49:01.790Z,17.81
2022-08-02T21:51:28.507Z,17.79
2022-08-02T21:54:18.026Z,17.77
2022-08-02T21:56:51.804Z,17.83
2022-08-02T21:59:25.782Z,17.76
2022-08-02T22:01:54.059Z,17.77
2022-08-02T22:04:21.665Z,17.76
2022-08-02T22:06:49.028Z,17.75
2022-08-02T22:09:43.069Z,17.78
2022-08-02T22:12:09.717Z,17.69
2022-08-02T22:14:39.383Z,17.61
2022-08-02T22:17:08.876Z,17.53
2022-08-02T22:19:40.184Z,17.46
2022-08-02T22:22:20.429Z,17.42
2022-08-02T22:24:46.974Z,17.41
2022-08-02T22:27:14.186Z,17.42
2022-08-02T22:29:40.719Z,17.44
2022-08-02T22:32:07.319Z,17.42
2022-08-02T22:34:51.304Z,17.39
2022-08-02T22:40:09.611Z,17.38
2022-08-02T22:42:36.644Z,17.32
2022-08-02T22:45:07.744Z,17.35
2022-08-02T22:47:38.769Z,17.33
2022-08-02T22:50:17.596Z,17.29
2022-08-02T22:52:50.133Z,17.19
2022-08-02T22:55:17.347Z,17.13
2022-08-02T22:57:56.721Z,17.15
2022-08-02T22:59:09.600Z,17.41
2022-08-02T23:00:24.951Z,17.08
2022-08-02T23:02:51.551Z,17.07
2022-08-02T23:05:18.146Z,17.01
2022-08-02T23:07:44.654Z,16.97
2022-08-02T23:10:11.185Z,16.92
2022-08-02T23:12:37.789Z,16.91
2022-08-02T23:15:04.689Z,16.83
2022-08-02T23:17:49.809Z,16.81
2022-08-02T23:20:19.639Z,16.79
2022-08-02T23:22:46.273Z,16.82
2022-08-02T23:25:12.879Z,16.80
2022-08-02T23:27:39.555Z,16.74
2022-08-02T23:30:17.395Z,16.70
2022-08-02T23:32:43.951Z,16.71
2022-08-02T23:35:16.519Z,16.67
2022-08-02T23:37:58.997Z,16.68
2022-08-02T23:40:39.843Z,16.73
2022-08-02T23:43:13.995Z,16.70
2022-08-02T23:45:43.009Z,16.61
2022-08-02T23:48:09.605Z,16.55
2022-08-02T23:50:36.206Z,16.51
2022-08-02T23:53:02.756Z,16.45
2022-08-02T23:55:29.420Z,16.40
2022-08-02T23:57:55.962Z,16.35
